Time;durP1;ratioP1;P1;durP2;ratioP2;P2;SDS_P1;SDS_P2;PMS_P1;PMS_P2;Temp;Humidity;BMP_temperature;BMP_pressure;BME280_temperature;BME280_humidity;BME280_pressure;Samples;Min_cycle;Max_cycle;Signal;HPM_P1;HPM_P2
2023/07/22 02:02:31;;;;;;;4.85;3.10;;;;;;;;;;4286071;28;20075;-82
2023/07/22 02:04:57;;;;;;;4.90;3.33;;;;;;;;;;4282494;33;20084;-80
2023/07/22 02:07:26;;;;;;;6.37;3.78;;;;;;;;;;4282793;33;20403;-82
2023/07/22 02:09:52;;;;;;;2.85;2.65;;;;;;;;;;4280754;33;20045;-82
2023/07/22 02:12:19;;;;;;;2.62;2.42;;;;;;;;;;4281124;33;20041;-82
2023/07/22 02:14:45;;;;;;;2.65;2.45;;;;;;;;;;4280153;33;20033;-81
2023/07/22 02:17:11;;;;;;;3.78;2.65;;;;;;;;;;4282474;33;20148;-83
2023/07/22 02:19:38;;;;;;;3.72;3.10;;;;;;;;;;4279016;33;20096;-83
2023/07/22 02:22:04;;;;;;;3.60;3.35;;;;;;;;;;4278086;33;20053;-81
2023/07/22 02:24:31;;;;;;;2.53;2.33;;;;;;;;;;4238486;33;20050;-82
2023/07/22 02:26:57;;;;;;;3.30;3.00;;;;;;;;;;4238222;33;20100;-82
2023/07/22 02:29:23;;;;;;;5.32;4.30;;;;;;;;;;4237211;33;20184;-81
2023/07/22 02:31:50;;;;;;;3.28;2.95;;;;;;;;;;4238838;33;20046;-82
2023/07/22 02:34:16;;;;;;;3.25;2.75;;;;;;;;;;4237776;33;20046;-81
2023/07/22 02:36:42;;;;;;;6.87;2.70;;;;;;;;;;4239159;33;20073;-81
2023/07/22 02:39:09;;;;;;;4.60;3.00;;;;;;;;;;4238345;33;20051;-82
2023/07/22 02:41:36;;;;;;;3.78;3.47;;;;;;;;;;4238273;33;20050;-81
2023/07/22 02:44:03;;;;;;;2.97;2.72;;;;;;;;;;4249481;33;20041;-81
2023/07/22 02:46:29;;;;;;;4.43;4.00;;;;;;;;;;4249154;33;20050;-82
2023/07/22 02:48:55;;;;;;;4.72;3.62;;;;;;;;;;4251305;33;20058;-81
2023/07/22 02:51:21;;;;;;;5.75;4.22;;;;;;;;;;4252621;33;20042;-82
2023/07/22 02:53:48;;;;;;;8.00;4.93;;;;;;;;;;4251148;33;20081;-82
2023/07/22 02:56:14;;;;;;;7.93;3.47;;;;;;;;;;4249724;33;20460;-85
2023/07/22 02:58:44;;;;;;;5.55;3.03;;;;;;;;;;4251235;33;20338;-81
2023/07/22 03:01:10;;;;;;;6.82;2.80;;;;;;;;;;4255210;33;20071;-82
2023/07/22 03:03:37;;;;;;;3.65;2.67;;;;;;;;;;4278635;33;20348;-81
2023/07/22 03:06:04;;;;;;;9.52;2.85;;;;;;;;;;4279331;33;20189;-86
2023/07/22 03:08:30;;;;;;;3.25;2.55;;;;;;;;;;4279364;33;20053;-82
2023/07/22 03:10:56;;;;;;;3.12;2.78;;;;;;;;;;4280251;33;20068;-81
2023/07/22 03:13:22;;;;;;;2.40;2.28;;;;;;;;;;4279534;33;20099;-81
2023/07/22 03:15:48;;;;;;;6.30;2.90;;;;;;;;;;4278995;33;20065;-81
2023/07/22 03:18:14;;;;;;;6.80;2.60;;;;;;;;;;4278661;33;20587;-81
2023/07/22 03:20:41;;;;;;;2.50;2.30;;;;;;;;;;4278026;33;20045;-82
2023/07/22 03:23:07;;;;;;;3.97;2.70;;;;;;;;;;4279949;33;20110;-82
2023/07/22 03:25:34;;;;;;;3.20;2.92;;;;;;;;;;4280067;33;20053;-82
2023/07/22 03:28:04;;;;;;;2.97;2.45;;;;;;;;;;4280346;33;20592;-81
2023/07/22 03:30:30;;;;;;;5.05;2.53;;;;;;;;;;4279272;33;20042;-85
2023/07/22 03:32:57;;;;;;;2.80;2.50;;;;;;;;;;4269954;33;20773;-81
2023/07/22 03:35:23;;;;;;;2.55;2.45;;;;;;;;;;4268149;33;20050;-81
2023/07/22 03:40:31;;;;;;;4.12;2.45;;;;;;;;;;4266647;33;20050;-85
2023/07/22 03:42:57;;;;;;;3.03;2.40;;;;;;;;;;4267904;33;20734;-83
2023/07/22 03:45:23;;;;;;;2.10;1.98;;;;;;;;;;4267086;33;20378;-82
2023/07/22 03:47:51;;;;;;;2.85;2.45;;;;;;;;;;4249852;33;20512;-82
2023/07/22 03:50:17;;;;;;;3.08;2.15;;;;;;;;;;4251133;33;20064;-87
2023/07/22 03:52:43;;;;;;;1.92;1.75;;;;;;;;;;4250136;33;20416;-82
2023/07/22 03:55:09;;;;;;;1.70;1.60;;;;;;;;;;4251638;33;20111;-82
2023/07/22 03:57:35;;;;;;;2.92;2.28;;;;;;;;;;4251000;33;20050;-81
2023/07/22 04:00:03;;;;;;;4.62;2.00;;;;;;;;;;4251654;33;20422;-82
2023/07/22 04:02:38;;;;;;;2.85;1.98;;;;;;;;;;4248454;33;20097;-82
2023/07/22 04:05:06;;;;;;;2.33;2.05;;;;;;;;;;4250440;33;20907;-82
2023/07/22 04:07:37;;;;;;;2.35;1.90;;;;;;;;;;4250529;33;20042;-82
2023/07/22 04:10:03;;;;;;;3.40;1.70;;;;;;;;;;4251254;33;20500;-81
2023/07/22 04:12:29;;;;;;;2.58;1.90;;;;;;;;;;4262883;33;20059;-85
2023/07/22 04:14:55;;;;;;;9.30;1.83;;;;;;;;;;4263846;33;20030;-81
2023/07/22 04:17:21;;;;;;;4.68;2.00;;;;;;;;;;4265023;33;20472;-82
2023/07/22 04:19:48;;;;;;;3.10;1.65;;;;;;;;;;4277837;33;20103;-81
2023/07/22 04:22:14;;;;;;;9.10;2.20;;;;;;;;;;4279028;33;20049;-81
2023/07/22 04:24:40;;;;;;;2.33;2.12;;;;;;;;;;4279445;33;20116;-84
2023/07/22 04:27:06;;;;;;;5.53;1.92;;;;;;;;;;4247888;33;20381;-85
2023/07/22 04:29:32;;;;;;;2.00;1.90;;;;;;;;;;4250733;33;20053;-82
2023/07/22 04:31:59;;;;;;;2.92;1.55;;;;;;;;;;4250832;33;20042;-82
2023/07/22 04:34:29;;;;;;;1.98;1.73;;;;;;;;;;4250189;33;20439;-83
2023/07/22 04:36:55;;;;;;;3.15;2.20;;;;;;;;;;4249209;33;20038;-86
2023/07/22 04:39:22;;;;;;;2.58;2.37;;;;;;;;;;4249562;33;20396;-81
2023/07/22 04:41:48;;;;;;;2.65;2.30;;;;;;;;;;4250477;33;20593;-80
2023/07/22 04:44:14;;;;;;;4.70;1.60;;;;;;;;;;4253091;33;20065;-80
2023/07/22 04:46:40;;;;;;;1.87;1.77;;;;;;;;;;4279538;33;20050;-84
2023/07/22 04:49:06;;;;;;;2.40;2.17;;;;;;;;;;4277722;33;20431;-82
2023/07/22 04:51:33;;;;;;;2.15;1.95;;;;;;;;;;4265869;33;20050;-81
2023/07/22 04:53:58;;;;;;;2.00;1.90;;;;;;;;;;4279804;33;20133;-81
2023/07/22 04:56:25;;;;;;;2.55;2.35;;;;;;;;;;4279720;33;20063;-80
2023/07/22 04:58:51;;;;;;;4.28;3.12;;;;;;;;;;4279353;33;20062;-82
2023/07/22 05:01:17;;;;;;;2.37;2.20;;;;;;;;;;4284967;33;20500;-84
2023/07/22 05:03:43;;;;;;;1.80;1.70;;;;;;;;;;4291177;33;20041;-80
2023/07/22 05:06:09;;;;;;;7.72;2.08;;;;;;;;;;4293299;33;20329;-81
2023/07/22 05:08:37;;;;;;;3.50;2.50;;;;;;;;;;4293472;33;20079;-81
2023/07/22 05:11:04;;;;;;;3.28;1.90;;;;;;;;;;4296025;33;20063;-82
2023/07/22 05:13:29;;;;;;;3.40;2.42;;;;;;;;;;4294992;33;20045;-80
2023/07/22 05:15:56;;;;;;;2.37;2.22;;;;;;;;;;4280842;33;20049;-81
2023/07/22 05:18:22;;;;;;;4.40;1.90;;;;;;;;;;4280919;33;20118;-82
2023/07/22 05:20:48;;;;;;;2.97;2.00;;;;;;;;;;4281689;33;20092;-81
2023/07/22 05:23:14;;;;;;;3.40;3.10;;;;;;;;;;4280024;33;20075;-81
2023/07/22 05:25:40;;;;;;;3.22;2.50;;;;;;;;;;4279338;33;20049;-83
2023/07/22 05:28:06;;;;;;;4.53;2.17;;;;;;;;;;4280371;33;20041;-82
2023/07/22 05:30:33;;;;;;;8.45;2.58;;;;;;;;;;4280698;33;20049;-81
2023/07/22 05:32:59;;;;;;;2.50;1.85;;;;;;;;;;4281212;33;20041;-82
2023/07/22 05:35:25;;;;;;;4.85;2.42;;;;;;;;;;4282114;33;20049;-81
2023/07/22 05:37:51;;;;;;;6.10;2.40;;;;;;;;;;4280815;33;20030;-81
2023/07/22 05:40:18;;;;;;;2.78;2.50;;;;;;;;;;4278833;33;20098;-80
2023/07/22 05:42:44;;;;;;;5.55;2.40;;;;;;;;;;4282073;33;20264;-80
2023/07/22 05:45:13;;;;;;;2.85;2.20;;;;;;;;;;4281524;33;20045;-81
2023/07/22 05:47:39;;;;;;;10.48;2.12;;;;;;;;;;4306531;33;20040;-82
2023/07/22 05:50:06;;;;;;;2.65;2.05;;;;;;;;;;4309977;33;20048;-86
2023/07/22 05:52:32;;;;;;;3.53;2.15;;;;;;;;;;4308463;33;20041;-81
2023/07/22 05:54:58;;;;;;;2.65;2.50;;;;;;;;;;4309877;33;20456;-81
2023/07/22 05:57:24;;;;;;;3.72;1.87;;;;;;;;;;4309964;33;20037;-81
2023/07/22 05:59:51;;;;;;;4.90;1.90;;;;;;;;;;4309047;33;20052;-81
2023/07/22 06:02:18;;;;;;;2.17;1.98;;;;;;;;;;4294200;33;20084;-83
2023/07/22 06:04:44;;;;;;;4.55;2.03;;;;;;;;;;4295097;33;20041;-82
2023/07/22 06:07:10;;;;;;;3.55;2.60;;;;;;;;;;4295241;33;20044;-80
2023/07/22 06:09:36;;;;;;;3.20;2.12;;;;;;;;;;4295049;33;20049;-81
2023/07/22 06:12:03;;;;;;;2.00;1.80;;;;;;;;;;4279969;33;20049;-81
2023/07/22 06:14:29;;;;;;;1.90;1.80;;;;;;;;;;4279097;33;20184;-85
2023/07/22 06:16:55;;;;;;;2.17;1.75;;;;;;;;;;4280506;33;20083;-81
2023/07/22 06:19:23;;;;;;;3.03;1.77;;;;;;;;;;4269594;33;20067;-80
2023/07/22 06:21:49;;;;;;;1.98;1.83;;;;;;;;;;4266190;33;20064;-81
2023/07/22 06:24:16;;;;;;;2.70;1.73;;;;;;;;;;4266385;33;20054;-81
2023/07/22 06:26:42;;;;;;;2.03;1.70;;;;;;;;;;4265029;33;20050;-84
2023/07/22 06:29:08;;;;;;;4.35;1.80;;;;;;;;;;4265633;33;20057;-81
2023/07/22 06:31:34;;;;;;;1.85;1.60;;;;;;;;;;4265005;33;20229;-81
2023/07/22 06:34:00;;;;;;;1.50;1.40;;;;;;;;;;4264992;33;20079;-81
2023/07/22 06:36:26;;;;;;;2.87;1.60;;;;;;;;;;4266172;33;20072;-83
2023/07/22 06:38:52;;;;;;;1.55;1.45;;;;;;;;;;4263438;33;20132;-87
2023/07/22 06:41:19;;;;;;;3.10;1.80;;;;;;;;;;4265178;33;20041;-81
2023/07/22 06:43:45;;;;;;;2.87;1.58;;;;;;;;;;4266948;33;20050;-82
2023/07/22 06:46:11;;;;;;;1.48;1.37;;;;;;;;;;4264774;33;20037;-82
2023/07/22 06:48:37;;;;;;;3.90;1.50;;;;;;;;;;4264551;33;20601;-82
2023/07/22 06:51:03;;;;;;;2.75;1.70;;;;;;;;;;4265344;33;20291;-83
2023/07/22 06:53:31;;;;;;;1.70;1.60;;;;;;;;;;4262945;33;20521;-83
2023/07/22 06:55:57;;;;;;;1.60;1.50;;;;;;;;;;4266085;33;20538;-82
2023/07/22 06:58:23;;;;;;;1.85;1.75;;;;;;;;;;4236526;33;20101;-82
2023/07/22 07:00:52;;;;;;;3.33;1.73;;;;;;;;;;4241199;33;20188;-83
2023/07/22 07:03:19;;;;;;;2.70;1.62;;;;;;;;;;4248967;33;20068;-87
2023/07/22 07:05:51;;;;;;;4.90;1.65;;;;;;;;;;4251949;33;20045;-82
2023/07/22 07:08:17;;;;;;;5.12;1.60;;;;;;;;;;4251645;33;20107;-82
2023/07/22 07:10:43;;;;;;;1.52;1.42;;;;;;;;;;4251412;33;20053;-82
2023/07/22 07:13:09;;;;;;;4.00;1.75;;;;;;;;;;4251354;33;20068;-84
2023/07/22 07:15:35;;;;;;;1.60;1.50;;;;;;;;;;4249814;33;20114;-82
2023/07/22 07:18:01;;;;;;;3.40;1.80;;;;;;;;;;4262437;33;20314;-82
2023/07/22 07:20:27;;;;;;;3.22;1.83;;;;;;;;;;4266921;33;20073;-82
2023/07/22 07:22:54;;;;;;;2.03;1.80;;;;;;;;;;4236503;33;20046;-82
2023/07/22 07:25:20;;;;;;;1.70;1.50;;;;;;;;;;4236883;33;20066;-84
2023/07/22 07:27:46;;;;;;;1.87;1.67;;;;;;;;;;4237242;33;20073;-82
2023/07/22 07:30:12;;;;;;;1.90;1.80;;;;;;;;;;4261613;33;20041;-81
2023/07/22 07:32:38;;;;;;;2.78;2.00;;;;;;;;;;4266420;33;20049;-81
2023/07/22 07:35:04;;;;;;;6.30;2.08;;;;;;;;;;4266764;33;20104;-79
2023/07/22 07:37:31;;;;;;;2.30;2.10;;;;;;;;;;4263466;33;20064;-82
2023/07/22 07:39:59;;;;;;;1.77;1.50;;;;;;;;;;4265863;33;20034;-80
2023/07/22 07:42:26;;;;;;;2.75;1.40;;;;;;;;;;4266669;33;20564;-82
2023/07/22 07:44:52;;;;;;;1.42;1.42;;;;;;;;;;4265971;33;20055;-81
2023/07/22 07:47:19;;;;;;;2.72;1.92;;;;;;;;;;4263632;33;20190;-81
2023/07/22 07:49:45;;;;;;;6.37;1.70;;;;;;;;;;4265116;33;20056;-81
2023/07/22 07:52:11;;;;;;;2.75;2.55;;;;;;;;;;4264702;33;20482;-82
2023/07/22 07:54:37;;;;;;;4.32;1.80;;;;;;;;;;4278388;33;20084;-81
2023/07/22 07:57:04;;;;;;;7.65;1.58;;;;;;;;;;4278166;33;20057;-81
2023/07/22 07:59:30;;;;;;;2.08;1.77;;;;;;;;;;4277858;33;20067;-82
2023/07/22 08:01:56;;;;;;;2.45;1.40;;;;;;;;;;4276152;33;20400;-81
2023/07/22 08:04:23;;;;;;;1.50;1.40;;;;;;;;;;4279847;33;20576;-83
2023/07/22 08:06:49;;;;;;;1.35;1.35;;;;;;;;;;4278373;33;20095;-82
2023/07/22 08:09:18;;;;;;;2.25;1.30;;;;;;;;;;4278733;33;20053;-81
2023/07/22 08:11:45;;;;;;;1.70;1.60;;;;;;;;;;4277836;33;20038;-85
2023/07/22 08:14:11;;;;;;;2.67;1.50;;;;;;;;;;4277977;33;20064;-82
2023/07/22 08:16:37;;;;;;;2.75;1.27;;;;;;;;;;4279473;33;20180;-82
2023/07/22 08:19:04;;;;;;;3.15;1.80;;;;;;;;;;4278473;33;20481;-81
2023/07/22 08:21:31;;;;;;;1.65;1.55;;;;;;;;;;4277977;33;20041;-81
2023/07/22 08:23:57;;;;;;;1.33;1.15;;;;;;;;;;4276523;33;20100;-86
2023/07/22 08:26:24;;;;;;;1.35;1.25;;;;;;;;;;4278681;33;20533;-81
2023/07/22 08:28:50;;;;;;;1.45;1.35;;;;;;;;;;4279446;33;20096;-83
2023/07/22 08:31:16;;;;;;;1.67;1.35;;;;;;;;;;4278301;33;20042;-83
2023/07/22 08:33:42;;;;;;;1.50;1.40;;;;;;;;;;4279307;33;20326;-82
2023/07/22 08:36:08;;;;;;;2.00;1.85;;;;;;;;;;4277905;33;20087;-86
2023/07/22 08:38:34;;;;;;;7.20;1.67;;;;;;;;;;4278207;33;20492;-83
2023/07/22 08:41:01;;;;;;;2.05;1.65;;;;;;;;;;4278486;33;20359;-81
2023/07/22 08:43:28;;;;;;;5.45;1.70;;;;;;;;;;4280709;33;20794;-82
2023/07/22 08:45:54;;;;;;;1.60;1.40;;;;;;;;;;4280945;33;20527;-83
2023/07/22 08:48:24;;;;;;;2.53;1.37;;;;;;;;;;4279430;33;20075;-84
2023/07/22 08:50:54;;;;;;;2.20;1.65;;;;;;;;;;4282486;33;20061;-81
2023/07/22 08:53:21;;;;;;;2.58;1.62;;;;;;;;;;4281978;33;20042;-81
2023/07/22 08:55:50;;;;;;;3.45;1.37;;;;;;;;;;4265972;33;20093;-83
2023/07/22 08:58:16;;;;;;;2.17;1.70;;;;;;;;;;4267156;33;20037;-82
2023/07/22 09:00:43;;;;;;;5.05;1.45;;;;;;;;;;4267054;33;20061;-81
2023/07/22 09:03:10;;;;;;;7.72;1.67;;;;;;;;;;4252847;33;20043;-83
2023/07/22 09:05:36;;;;;;;1.90;1.80;;;;;;;;;;4253752;33;20465;-82
2023/07/22 09:08:03;;;;;;;5.15;1.60;;;;;;;;;;4250151;33;20071;-82
2023/07/22 09:10:30;;;;;;;1.55;1.50;;;;;;;;;;4253634;33;20062;-81
2023/07/22 09:12:56;;;;;;;4.43;1.98;;;;;;;;;;4253994;33;20376;-82
2023/07/22 09:15:24;;;;;;;1.87;1.77;;;;;;;;;;4252782;33;20420;-81
2023/07/22 09:17:50;;;;;;;6.85;1.42;;;;;;;;;;4253332;33;20030;-82
2023/07/22 09:20:16;;;;;;;1.55;1.50;;;;;;;;;;4249784;33;20504;-85
2023/07/22 09:22:43;;;;;;;1.73;1.50;;;;;;;;;;4252564;33;20282;-81
2023/07/22 09:25:15;;;;;;;5.15;1.60;;;;;;;;;;4253303;33;20466;-82
2023/07/22 09:27:42;;;;;;;1.33;1.23;;;;;;;;;;4264208;33;20061;-82
2023/07/22 09:30:20;;;;;;;1.08;1.08;;;;;;;;;;4266787;33;20050;-82
2023/07/22 09:32:46;;;;;;;2.42;1.50;;;;;;;;;;4266606;33;20492;-81
2023/07/22 09:35:13;;;;;;;4.22;1.45;;;;;;;;;;4252619;33;20060;-83
2023/07/22 09:37:39;;;;;;;4.80;1.70;;;;;;;;;;4255018;33;20039;-81
2023/07/22 09:40:21;;;;;;;1.80;1.27;;;;;;;;;;4253166;33;20053;-81
2023/07/22 09:42:49;;;;;;;1.52;1.42;;;;;;;;;;4253923;33;20239;-82
2023/07/22 09:45:16;;;;;;;2.28;1.55;;;;;;;;;;4258935;33;20046;-87
2023/07/22 09:47:43;;;;;;;1.73;1.58;;;;;;;;;;4267529;33;20591;-83
2023/07/22 09:50:27;;;;;;;1.60;1.60;;;;;;;;;;4265786;33;20141;-86
2023/07/22 09:53:01;;;;;;;1.52;1.50;;;;;;;;;;4253845;33;20114;-83
2023/07/22 09:55:28;;;;;;;9.98;1.40;;;;;;;;;;4252408;33;20530;-87
2023/07/22 09:57:54;;;;;;;1.42;1.40;;;;;;;;;;4253184;33;20117;-88
2023/07/22 10:00:23;;;;;;;1.77;1.17;;;;;;;;;;4240660;33;20072;-82
2023/07/22 10:02:51;;;;;;;1.45;1.23;;;;;;;;;;4257716;33;20483;-81
2023/07/22 10:05:19;;;;;;;1.65;1.40;;;;;;;;;;4257919;33;20518;-82
2023/07/22 10:07:45;;;;;;;1.33;1.25;;;;;;;;;;4264974;33;20045;-87
2023/07/22 10:10:12;;;;;;;3.30;1.62;;;;;;;;;;4265830;33;20072;-82
2023/07/22 10:12:42;;;;;;;3.03;1.80;;;;;;;;;;4266951;33;20349;-82
2023/07/22 10:15:09;;;;;;;3.37;2.08;;;;;;;;;;4266922;33;20042;-81
2023/07/22 10:17:36;;;;;;;1.85;1.40;;;;;;;;;;4266861;33;20525;-88
2023/07/22 10:20:07;;;;;;;4.68;1.25;;;;;;;;;;4250586;33;20449;-81
2023/07/22 10:22:37;;;;;;;6.43;1.83;;;;;;;;;;4251274;33;20073;-82
2023/07/22 10:25:07;;;;;;;1.87;1.15;;;;;;;;;;4251512;33;20050;-82
2023/07/22 10:27:34;;;;;;;1.50;1.40;;;;;;;;;;4236277;33;20046;-85
2023/07/22 10:30:02;;;;;;;1.87;1.83;;;;;;;;;;4236773;33;20072;-83
2023/07/22 10:32:33;;;;;;;12.55;6.90;;;;;;;;;;4238246;33;20047;-82
2023/07/22 10:34:59;;;;;;;1.77;1.67;;;;;;;;;;4236990;33;20054;-82
2023/07/22 10:37:33;;;;;;;1.75;1.65;;;;;;;;;;4252266;33;20072;-83
2023/07/22 10:40:00;;;;;;;1.70;1.60;;;;;;;;;;4250305;33;20046;-81
2023/07/22 10:42:26;;;;;;;1.60;1.50;;;;;;;;;;4251249;33;20060;-81
2023/07/22 10:44:52;;;;;;;2.10;1.80;;;;;;;;;;4252221;33;20059;-80
2023/07/22 10:47:32;;;;;;;3.90;2.60;;;;;;;;;;4250154;33;20084;-83
2023/07/22 10:50:04;;;;;;;2.70;1.62;;;;;;;;;;4220942;33;20039;-82
2023/07/22 10:52:41;;;;;;;3.78;1.67;;;;;;;;;;4209723;34;20047;-82
2023/07/22 10:55:17;;;;;;;1.62;1.40;;;;;;;;;;4221833;34;20086;-83
2023/07/22 10:57:51;;;;;;;2.03;1.60;;;;;;;;;;4224132;33;20058;-82
2023/07/22 11:03:21;;;;;;;5.93;1.50;;;;;;;;;;4233289;33;20101;-85
2023/07/22 11:05:52;;;;;;;4.65;1.40;;;;;;;;;;4237115;33;20361;-82
2023/07/22 11:08:37;;;;;;;7.28;1.48;;;;;;;;;;4237334;33;20366;-82
2023/07/22 11:11:11;;;;;;;2.37;2.17;;;;;;;;;;4234945;33;20054;-82
2023/07/22 11:13:38;;;;;;;9.05;1.65;;;;;;;;;;4237790;33;20463;-81
2023/07/22 11:16:08;;;;;;;2.40;1.95;;;;;;;;;;4237887;33;20457;-80
2023/07/22 11:18:38;;;;;;;2.85;1.50;;;;;;;;;;4236911;33;20042;-81
2023/07/22 11:21:12;;;;;;;2.15;1.95;;;;;;;;;;4249495;33;20431;-83
2023/07/22 11:23:37;;;;;;;3.83;1.33;;;;;;;;;;4254523;33;20505;-83
2023/07/22 11:26:05;;;;;;;3.28;1.50;;;;;;;;;;4253459;33;20123;-82
2023/07/22 11:28:31;;;;;;;5.87;1.55;;;;;;;;;;4254305;33;20087;-82
2023/07/22 11:30:58;;;;;;;5.32;2.35;;;;;;;;;;4253827;33;20408;-84
2023/07/22 11:33:25;;;;;;;3.08;1.45;;;;;;;;;;4255152;33;20053;-82
2023/07/22 11:35:51;;;;;;;4.12;2.12;;;;;;;;;;4254053;33;20038;-81
2023/07/22 11:38:17;;;;;;;5.50;1.50;;;;;;;;;;4267233;33;20099;-81
2023/07/22 11:40:45;;;;;;;1.95;1.50;;;;;;;;;;4273143;33;20358;-83
2023/07/22 11:43:11;;;;;;;1.55;1.45;;;;;;;;;;4281105;33;20129;-85
2023/07/22 11:45:38;;;;;;;5.03;1.50;;;;;;;;;;4279560;33;20415;-84
2023/07/22 11:48:09;;;;;;;3.42;1.80;;;;;;;;;;4279957;33;20122;-84
2023/07/22 11:50:35;;;;;;;1.40;1.40;;;;;;;;;;4282802;33;20093;-85
2023/07/22 11:53:01;;;;;;;2.58;1.60;;;;;;;;;;4279072;33;20042;-87
2023/07/22 11:55:27;;;;;;;3.25;2.00;;;;;;;;;;4266526;33;20130;-83
2023/07/22 11:57:53;;;;;;;1.62;1.35;;;;;;;;;;4266268;33;20030;-82
2023/07/22 12:00:20;;;;;;;4.03;1.70;;;;;;;;;;4267311;33;20038;-82
2023/07/22 12:02:46;;;;;;;2.22;1.70;;;;;;;;;;4278564;33;20076;-83
2023/07/22 12:05:20;;;;;;;2.92;2.62;;;;;;;;;;4276061;33;20050;-82
2023/07/22 12:07:46;;;;;;;4.35;1.73;;;;;;;;;;4281819;33;20037;-83
2023/07/22 12:10:15;;;;;;;1.85;1.40;;;;;;;;;;4271844;33;20050;-83
2023/07/22 12:12:46;;;;;;;5.03;1.73;;;;;;;;;;4268582;33;20042;-84
2023/07/22 12:15:15;;;;;;;2.40;1.77;;;;;;;;;;4268958;33;20071;-84
2023/07/22 12:17:45;;;;;;;1.45;1.37;;;;;;;;;;4271068;33;20529;-82
2023/07/22 12:20:12;;;;;;;4.60;1.40;;;;;;;;;;4274441;33;20046;-83
2023/07/22 12:22:38;;;;;;;6.75;1.70;;;;;;;;;;4272135;33;20045;-84
2023/07/22 12:25:05;;;;;;;1.48;1.33;;;;;;;;;;4272088;33;20384;-86
2023/07/22 12:27:31;;;;;;;1.75;1.65;;;;;;;;;;4273585;33;20045;-82
2023/07/22 12:30:05;;;;;;;6.43;1.80;;;;;;;;;;4273249;33;20439;-82
2023/07/22 12:32:31;;;;;;;2.08;1.62;;;;;;;;;;4269205;33;20404;-82
2023/07/22 12:34:58;;;;;;;4.55;1.80;;;;;;;;;;4269793;33;20072;-83
2023/07/22 12:37:25;;;;;;;1.92;1.83;;;;;;;;;;4267437;33;20433;-83
2023/07/22 12:39:51;;;;;;;1.60;1.50;;;;;;;;;;4269930;33;20054;-82
2023/07/22 12:42:17;;;;;;;1.70;1.50;;;;;;;;;;4270118;33;20093;-83
2023/07/22 12:44:50;;;;;;;4.12;1.52;;;;;;;;;;4268863;33;20050;-83
2023/07/22 12:47:16;;;;;;;2.60;1.60;;;;;;;;;;4268796;33;20178;-89
2023/07/22 12:49:42;;;;;;;2.20;1.35;;;;;;;;;;4268751;33;20042;-79
2023/07/22 12:52:09;;;;;;;3.20;1.60;;;;;;;;;;4269274;33;20108;-82
2023/07/22 12:54:42;;;;;;;1.87;1.60;;;;;;;;;;4270159;33;20042;-82
2023/07/22 12:57:08;;;;;;;3.20;1.77;;;;;;;;;;4268691;33;20046;-85
2023/07/22 12:59:34;;;;;;;1.75;1.65;;;;;;;;;;4267938;33;20116;-81
2023/07/22 13:02:00;;;;;;;1.62;1.52;;;;;;;;;;4269918;33;20045;-81
2023/07/22 13:04:26;;;;;;;8.68;1.83;;;;;;;;;;4256652;33;20046;-84
2023/07/22 13:06:52;;;;;;;2.08;1.60;;;;;;;;;;4268996;33;20458;-84
2023/07/22 13:09:19;;;;;;;4.10;1.40;;;;;;;;;;4268856;33;20056;-85
2023/07/22 13:11:45;;;;;;;1.77;1.65;;;;;;;;;;4269798;33;20053;-84
2023/07/22 13:14:11;;;;;;;7.43;1.70;;;;;;;;;;4253852;33;20072;-83
2023/07/22 13:16:37;;;;;;;2.10;2.00;;;;;;;;;;4255411;33;20082;-84
2023/07/22 13:19:04;;;;;;;4.45;2.50;;;;;;;;;;4255584;33;20485;-83
2023/07/22 13:21:30;;;;;;;6.80;1.83;;;;;;;;;;4253407;33;20045;-83
2023/07/22 13:23:56;;;;;;;1.73;1.62;;;;;;;;;;4254948;33;20417;-84
2023/07/22 13:26:22;;;;;;;1.90;1.80;;;;;;;;;;4254816;33;20045;-84
2023/07/22 13:28:48;;;;;;;4.25;2.22;;;;;;;;;;4253153;33;20031;-84
2023/07/22 13:31:14;;;;;;;2.30;1.87;;;;;;;;;;4236813;33;20200;-84
2023/07/22 13:33:40;;;;;;;1.80;1.70;;;;;;;;;;4237885;33;20084;-84
2023/07/22 13:36:06;;;;;;;5.70;1.70;;;;;;;;;;4238031;33;20078;-84
2023/07/22 13:38:33;;;;;;;6.40;1.87;;;;;;;;;;4238776;33;20381;-84
2023/07/22 13:40:59;;;;;;;10.98;3.37;;;;;;;;;;4237614;33;20450;-84
2023/07/22 13:43:27;;;;;;;10.05;1.62;;;;;;;;;;4236378;33;20056;-85
2023/07/22 13:45:53;;;;;;;2.80;1.70;;;;;;;;;;4238612;33;20289;-85
2023/07/22 13:48:19;;;;;;;2.22;2.03;;;;;;;;;;4239671;33;20047;-84
2023/07/22 13:50:45;;;;;;;2.03;1.52;;;;;;;;;;4252331;33;20323;-85
2023/07/22 13:53:12;;;;;;;1.33;1.33;;;;;;;;;;4250925;33;20447;-84
2023/07/22 13:55:38;;;;;;;2.97;1.65;;;;;;;;;;4251156;33;20549;-87
2023/07/22 13:58:04;;;;;;;15.27;3.15;;;;;;;;;;4252251;33;20045;-85
2023/07/22 14:00:30;;;;;;;1.67;1.58;;;;;;;;;;4250093;33;20091;-85
2023/07/22 14:02:57;;;;;;;1.90;1.73;;;;;;;;;;4247781;33;20456;-85
2023/07/22 14:05:24;;;;;;;6.37;2.20;;;;;;;;;;4252269;33;20072;-84
2023/07/22 14:07:51;;;;;;;1.77;1.67;;;;;;;;;;4246514;33;20072;-84
2023/07/22 14:10:23;;;;;;;3.75;2.10;;;;;;;;;;4251842;33;20054;-84
2023/07/22 14:12:49;;;;;;;4.70;1.65;;;;;;;;;;4250937;33;20042;-85
2023/07/22 14:15:15;;;;;;;2.10;2.00;;;;;;;;;;4252457;33;20042;-85
2023/07/22 14:17:42;;;;;;;4.03;1.60;;;;;;;;;;4249989;33;20054;-87
2023/07/22 14:20:08;;;;;;;1.80;1.67;;;;;;;;;;4251897;33;20365;-86
2023/07/22 14:22:34;;;;;;;5.82;1.75;;;;;;;;;;4251406;33;20426;-85
2023/07/22 14:25:00;;;;;;;3.30;1.70;;;;;;;;;;4251539;33;20046;-85
2023/07/22 14:27:27;;;;;;;1.73;1.62;;;;;;;;;;4250752;33;20086;-84
2023/07/22 14:29:53;;;;;;;6.22;1.83;;;;;;;;;;4236546;33;20129;-85
2023/07/22 14:32:19;;;;;;;1.27;1.27;;;;;;;;;;4236590;33;20084;-85
2023/07/22 14:34:45;;;;;;;2.40;2.10;;;;;;;;;;4237995;33;20121;-84
2023/07/22 14:37:18;;;;;;;3.22;1.67;;;;;;;;;;4236953;33;20108;-84
2023/07/22 14:39:44;;;;;;;3.03;2.20;;;;;;;;;;4247710;33;20041;-87
2023/07/22 14:42:11;;;;;;;1.70;1.60;;;;;;;;;;4250973;33;20504;-86
2023/07/22 14:44:37;;;;;;;3.78;1.75;;;;;;;;;;4251168;33;20173;-85
2023/07/22 14:47:04;;;;;;;2.22;2.12;;;;;;;;;;4250353;33;20084;-86
2023/07/22 14:49:30;;;;;;;1.70;1.60;;;;;;;;;;4251968;33;20046;-85
2023/07/22 14:51:56;;;;;;;2.97;1.67;;;;;;;;;;4249954;33;20478;-81
2023/07/22 14:54:22;;;;;;;3.85;1.60;;;;;;;;;;4247860;33;20173;-80
2023/07/22 14:56:48;;;;;;;1.35;1.35;;;;;;;;;;4250693;33;20405;-81
2023/07/22 14:59:15;;;;;;;18.02;1.90;;;;;;;;;;4251628;33;20119;-80
2023/07/22 15:01:42;;;;;;;3.80;1.45;;;;;;;;;;4250098;33;20062;-80
2023/07/22 15:04:08;;;;;;;3.95;2.00;;;;;;;;;;4252144;33;20342;-86
2023/07/22 15:06:37;;;;;;;11.20;1.95;;;;;;;;;;4250989;33;20479;-79
2023/07/22 15:09:06;;;;;;;1.65;1.55;;;;;;;;;;4251163;33;20115;-79
2023/07/22 15:11:34;;;;;;;6.43;2.10;;;;;;;;;;4251369;33;20119;-80
2023/07/22 15:13:59;;;;;;;4.97;1.40;;;;;;;;;;4251090;33;20064;-80
2023/07/22 15:16:26;;;;;;;8.77;2.62;;;;;;;;;;4249204;33;20072;-80
2023/07/22 15:18:52;;;;;;;4.18;2.37;;;;;;;;;;4252668;33;20085;-80
2023/07/22 15:21:18;;;;;;;4.78;1.95;;;;;;;;;;4253089;33;20072;-80
2023/07/22 15:23:44;;;;;;;3.67;1.90;;;;;;;;;;4249362;33;20438;-81
2023/07/22 15:26:10;;;;;;;7.32;2.30;;;;;;;;;;4249735;33;20068;-82
2023/07/22 15:28:36;;;;;;;7.87;1.60;;;;;;;;;;4248789;33;20043;-81
2023/07/22 15:31:03;;;;;;;2.05;1.60;;;;;;;;;;4249839;33;20072;-81
2023/07/22 15:33:29;;;;;;;3.17;1.85;;;;;;;;;;4249685;33;20046;-82
2023/07/22 15:35:55;;;;;;;4.68;2.53;;;;;;;;;;4249616;33;20046;-81
2023/07/22 15:38:22;;;;;;;1.75;1.70;;;;;;;;;;4247130;33;20075;-85
2023/07/22 15:40:48;;;;;;;1.50;1.40;;;;;;;;;;4236950;33;20078;-79
2023/07/22 15:43:14;;;;;;;10.65;1.92;;;;;;;;;;4249710;33;20068;-80
2023/07/22 15:45:40;;;;;;;2.08;1.65;;;;;;;;;;4234926;33;20533;-79
2023/07/22 15:48:06;;;;;;;1.77;1.67;;;;;;;;;;4235202;33;20049;-81
2023/07/22 15:50:32;;;;;;;2.62;2.42;;;;;;;;;;4233432;33;20060;-84
2023/07/22 15:52:59;;;;;;;2.22;2.03;;;;;;;;;;4235443;33;20043;-80
2023/07/22 15:55:25;;;;;;;6.93;2.72;;;;;;;;;;4236302;33;20047;-81
2023/07/22 15:57:51;;;;;;;1.58;1.48;;;;;;;;;;4236513;33;20323;-81
2023/07/22 16:00:17;;;;;;;1.48;1.37;;;;;;;;;;4246343;33;20522;-80
2023/07/22 16:02:44;;;;;;;2.55;2.00;;;;;;;;;;4261854;33;20057;-81
2023/07/22 16:05:10;;;;;;;3.67;1.65;;;;;;;;;;4264786;33;20046;-81
2023/07/22 16:07:37;;;;;;;1.75;1.52;;;;;;;;;;4236443;33;20042;-81
2023/07/22 16:10:03;;;;;;;2.03;1.92;;;;;;;;;;4235585;33;20042;-81
2023/07/22 16:12:29;;;;;;;4.40;1.77;;;;;;;;;;4235118;33;20039;-82
2023/07/22 16:14:56;;;;;;;3.10;1.62;;;;;;;;;;4234855;33;20236;-86
2023/07/22 16:17:22;;;;;;;1.80;1.70;;;;;;;;;;4245147;33;20064;-82
2023/07/22 16:19:48;;;;;;;1.95;1.85;;;;;;;;;;4250801;33;20066;-80
2023/07/22 16:22:14;;;;;;;4.35;2.30;;;;;;;;;;4250963;33;20392;-80
2023/07/22 16:24:41;;;;;;;7.10;2.08;;;;;;;;;;4237858;33;20189;-82
2023/07/22 16:27:07;;;;;;;5.75;3.45;;;;;;;;;;4249839;33;20437;-82
2023/07/22 16:29:34;;;;;;;3.08;2.05;;;;;;;;;;4250402;33;20046;-79
2023/07/22 16:32:00;;;;;;;4.20;2.50;;;;;;;;;;4250006;33;20796;-79
2023/07/22 16:34:26;;;;;;;3.22;1.60;;;;;;;;;;4250352;33;20058;-81
2023/07/22 16:36:52;;;;;;;1.55;1.48;;;;;;;;;;4249221;33;20046;-79
2023/07/22 16:39:19;;;;;;;3.53;2.65;;;;;;;;;;4261966;33;20052;-86
2023/07/22 16:41:45;;;;;;;4.87;2.45;;;;;;;;;;4265167;33;20059;-80
2023/07/22 16:44:17;;;;;;;2.03;1.83;;;;;;;;;;4266773;33;20071;-79
2023/07/22 16:46:43;;;;;;;2.62;2.05;;;;;;;;;;4266661;33;20356;-81
2023/07/22 16:49:11;;;;;;;2.80;1.90;;;;;;;;;;4264755;33;20120;-81